sensor_id;sensor_type;location;lat;lon;timestamp;P1;durP1;ratioP1;P2;durP2;ratioP2
29954;SDS011;16812;51.168;6.840;2022-09-17T00:00:13;8.13;;;2.40;;
29954;SDS011;16812;51.168;6.840;2022-09-17T00:02:40;7.33;;;2.93;;
29954;SDS011;16812;51.168;6.840;2022-09-17T00:05:07;5.73;;;1.90;;
29954;SDS011;16812;51.168;6.840;2022-09-17T00:07:34;6.73;;;2.53;;
29954;SDS011;16812;51.168;6.840;2022-09-17T00:10:01;6.80;;;2.30;;
29954;SDS011;16812;51.168;6.840;2022-09-17T00:12:31;7.27;;;2.27;;
29954;SDS011;16812;51.168;6.840;2022-09-17T00:14:58;9.80;;;2.40;;
29954;SDS011;16812;51.168;6.840;2022-09-17T00:17:25;4.47;;;2.20;;
29954;SDS011;16812;51.168;6.840;2022-09-17T00:19:52;8.53;;;2.63;;
29954;SDS011;16812;51.168;6.840;2022-09-17T00:22:19;9.20;;;2.10;;
29954;SDS011;16812;51.168;6.840;2022-09-17T00:24:46;7.70;;;2.30;;
29954;SDS011;16812;51.168;6.840;2022-09-17T00:27:13;8.83;;;3.13;;
29954;SDS011;16812;51.168;6.840;2022-09-17T00:29:42;9.03;;;2.57;;
29954;SDS011;16812;51.168;6.840;2022-09-17T00:32:09;4.20;;;2.17;;
29954;SDS011;16812;51.168;6.840;2022-09-17T00:34:36;13.43;;;2.80;;
29954;SDS011;16812;51.168;6.840;2022-09-17T00:37:03;9.67;;;2.57;;
29954;SDS011;16812;51.168;6.840;2022-09-17T00:39:30;7.40;;;3.10;;
29954;SDS011;16812;51.168;6.840;2022-09-17T00:41:57;7.33;;;2.80;;
29954;SDS011;16812;51.168;6.840;2022-09-17T00:44:38;16.73;;;3.30;;
29954;SDS011;16812;51.168;6.840;2022-09-17T00:47:08;11.30;;;3.57;;
29954;SDS011;16812;51.168;6.840;2022-09-17T00:49:38;16.50;;;3.63;;
29954;SDS011;16812;51.168;6.840;2022-09-17T00:52:05;6.33;;;3.13;;
29954;SDS011;16812;51.168;6.840;2022-09-17T00:54:34;10.60;;;3.47;;
29954;SDS011;16812;51.168;6.840;2022-09-17T00:57:02;13.13;;;3.70;;
29954;SDS011;16812;51.168;6.840;2022-09-17T00:59:29;7.40;;;3.40;;
29954;SDS011;16812;51.168;6.840;2022-09-17T01:01:57;14.53;;;3.30;;
29954;SDS011;16812;51.168;6.840;2022-09-17T01:04:25;15.83;;;3.83;;
29954;SDS011;16812;51.168;6.840;2022-09-17T01:06:55;11.73;;;3.50;;
29954;SDS011;16812;51.168;6.840;2022-09-17T01:09:26;8.70;;;3.40;;
29954;SDS011;16812;51.168;6.840;2022-09-17T01:11:59;12.70;;;4.03;;
29954;SDS011;16812;51.168;6.840;2022-09-17T01:14:34;15.83;;;3.53;;
29954;SDS011;16812;51.168;6.840;2022-09-17T01:17:05;7.47;;;3.60;;
29954;SDS011;16812;51.168;6.840;2022-09-17T01:19:53;14.03;;;4.40;;
29954;SDS011;16812;51.168;6.840;2022-09-17T01:22:23;8.30;;;3.30;;
29954;SDS011;16812;51.168;6.840;2022-09-17T01:25:04;10.20;;;3.50;;
29954;SDS011;16812;51.168;6.840;2022-09-17T01:30:38;8.73;;;4.10;;
29954;SDS011;16812;51.168;6.840;2022-09-17T01:33:09;9.03;;;3.90;;
29954;SDS011;16812;51.168;6.840;2022-09-17T01:35:40;8.60;;;3.57;;
29954;SDS011;16812;51.168;6.840;2022-09-17T01:38:13;10.40;;;3.77;;
29954;SDS011;16812;51.168;6.840;2022-09-17T01:40:44;6.03;;;3.07;;
29954;SDS011;16812;51.168;6.840;2022-09-17T01:43:15;6.00;;;3.60;;
29954;SDS011;16812;51.168;6.840;2022-09-17T01:45:47;10.80;;;3.93;;
29954;SDS011;16812;51.168;6.840;2022-09-17T01:48:16;10.30;;;3.80;;
29954;SDS011;16812;51.168;6.840;2022-09-17T01:50:45;4.10;;;2.93;;
29954;SDS011;16812;51.168;6.840;2022-09-17T01:53:13;11.10;;;3.17;;
29954;SDS011;16812;51.168;6.840;2022-09-17T01:55:43;8.10;;;3.23;;
29954;SDS011;16812;51.168;6.840;2022-09-17T01:58:12;8.33;;;3.40;;
29954;SDS011;16812;51.168;6.840;2022-09-17T02:00:41;9.60;;;2.80;;
29954;SDS011;16812;51.168;6.840;2022-09-17T02:03:12;10.90;;;3.63;;
29954;SDS011;16812;51.168;6.840;2022-09-17T02:05:42;7.30;;;3.47;;
29954;SDS011;16812;51.168;6.840;2022-09-17T02:08:10;10.33;;;3.50;;
29954;SDS011;16812;51.168;6.840;2022-09-17T02:10:41;11.77;;;3.50;;
29954;SDS011;16812;51.168;6.840;2022-09-17T02:13:12;7.50;;;3.63;;
29954;SDS011;16812;51.168;6.840;2022-09-17T02:15:41;15.73;;;3.47;;
29954;SDS011;16812;51.168;6.840;2022-09-17T02:18:12;6.90;;;3.17;;
29954;SDS011;16812;51.168;6.840;2022-09-17T02:20:44;17.30;;;4.07;;
29954;SDS011;16812;51.168;6.840;2022-09-17T02:23:13;12.80;;;2.93;;
29954;SDS011;16812;51.168;6.840;2022-09-17T02:25:43;15.30;;;3.50;;
29954;SDS011;16812;51.168;6.840;2022-09-17T02:28:13;10.40;;;3.17;;
29954;SDS011;16812;51.168;6.840;2022-09-17T02:30:43;8.93;;;4.53;;
29954;SDS011;16812;51.168;6.840;2022-09-17T02:33:11;9.60;;;3.80;;
29954;SDS011;16812;51.168;6.840;2022-09-17T02:35:39;8.80;;;2.70;;
29954;SDS011;16812;51.168;6.840;2022-09-17T02:38:08;9.40;;;2.97;;
29954;SDS011;16812;51.168;6.840;2022-09-17T02:40:37;9.70;;;2.80;;
29954;SDS011;16812;51.168;6.840;2022-09-17T02:43:09;11.30;;;2.67;;
29954;SDS011;16812;51.168;6.840;2022-09-17T02:45:42;16.63;;;3.60;;
29954;SDS011;16812;51.168;6.840;2022-09-17T02:48:14;9.63;;;3.33;;
29954;SDS011;16812;51.168;6.840;2022-09-17T02:50:46;8.67;;;3.27;;
29954;SDS011;16812;51.168;6.840;2022-09-17T02:53:22;7.17;;;2.77;;
29954;SDS011;16812;51.168;6.840;2022-09-17T02:55:55;8.47;;;2.90;;
29954;SDS011;16812;51.168;6.840;2022-09-17T02:58:25;4.73;;;2.53;;
29954;SDS011;16812;51.168;6.840;2022-09-17T03:00:56;6.57;;;2.23;;
29954;SDS011;16812;51.168;6.840;2022-09-17T03:03:27;11.80;;;3.20;;
29954;SDS011;16812;51.168;6.840;2022-09-17T03:05:56;6.57;;;2.73;;
29954;SDS011;16812;51.168;6.840;2022-09-17T03:08:28;16.10;;;3.20;;
29954;SDS011;16812;51.168;6.840;2022-09-17T03:10:56;13.57;;;3.13;;
29954;SDS011;16812;51.168;6.840;2022-09-17T03:13:23;13.03;;;2.67;;
29954;SDS011;16812;51.168;6.840;2022-09-17T03:15:50;12.20;;;3.33;;
29954;SDS011;16812;51.168;6.840;2022-09-17T03:18:17;12.40;;;2.50;;
29954;SDS011;16812;51.168;6.840;2022-09-17T03:20:44;7.90;;;2.50;;
29954;SDS011;16812;51.168;6.840;2022-09-17T03:23:11;11.03;;;2.27;;
29954;SDS011;16812;51.168;6.840;2022-09-17T03:25:40;7.30;;;2.70;;
29954;SDS011;16812;51.168;6.840;2022-09-17T03:28:09;12.60;;;3.00;;
29954;SDS011;16812;51.168;6.840;2022-09-17T03:30:36;10.73;;;3.10;;
29954;SDS011;16812;51.168;6.840;2022-09-17T03:33:03;8.30;;;2.53;;
29954;SDS011;16812;51.168;6.840;2022-09-17T03:35:30;11.90;;;2.70;;
29954;SDS011;16812;51.168;6.840;2022-09-17T03:37:57;8.07;;;2.67;;
29954;SDS011;16812;51.168;6.840;2022-09-17T03:40:25;5.73;;;2.30;;
29954;SDS011;16812;51.168;6.840;2022-09-17T03:42:53;10.67;;;2.47;;
29954;SDS011;16812;51.168;6.840;2022-09-17T03:45:20;14.87;;;3.10;;
29954;SDS011;16812;51.168;6.840;2022-09-17T03:47:47;11.57;;;2.83;;
29954;SDS011;16812;51.168;6.840;2022-09-17T03:50:14;9.97;;;2.40;;
29954;SDS011;16812;51.168;6.840;2022-09-17T03:52:42;8.43;;;2.43;;
29954;SDS011;16812;51.168;6.840;2022-09-17T03:55:09;8.10;;;3.20;;
29954;SDS011;16812;51.168;6.840;2022-09-17T03:57:36;12.87;;;2.60;;
29954;SDS011;16812;51.168;6.840;2022-09-17T04:00:05;13.10;;;3.50;;
29954;SDS011;16812;51.168;6.840;2022-09-17T04:02:36;12.13;;;2.97;;
29954;SDS011;16812;51.168;6.840;2022-09-17T04:05:04;7.83;;;2.07;;
29954;SDS011;16812;51.168;6.840;2022-09-17T04:07:32;14.03;;;3.20;;
29954;SDS011;16812;51.168;6.840;2022-09-17T04:09:59;11.37;;;3.00;;
29954;SDS011;16812;51.168;6.840;2022-09-17T04:12:26;9.47;;;2.53;;
29954;SDS011;16812;51.168;6.840;2022-09-17T04:14:53;11.60;;;2.63;;
29954;SDS011;16812;51.168;6.840;2022-09-17T04:17:21;6.10;;;1.87;;
29954;SDS011;16812;51.168;6.840;2022-09-17T04:19:48;8.93;;;2.87;;
29954;SDS011;16812;51.168;6.840;2022-09-17T04:22:15;12.80;;;2.80;;
29954;SDS011;16812;51.168;6.840;2022-09-17T04:24:43;7.60;;;2.37;;
29954;SDS011;16812;51.168;6.840;2022-09-17T04:27:10;11.10;;;2.50;;
29954;SDS011;16812;51.168;6.840;2022-09-17T04:29:37;11.13;;;2.63;;
29954;SDS011;16812;51.168;6.840;2022-09-17T04:32:04;8.90;;;2.83;;
29954;SDS011;16812;51.168;6.840;2022-09-17T04:34:32;12.20;;;2.83;;
29954;SDS011;16812;51.168;6.840;2022-09-17T04:37:00;12.03;;;3.17;;
29954;SDS011;16812;51.168;6.840;2022-09-17T04:39:27;10.87;;;2.60;;
29954;SDS011;16812;51.168;6.840;2022-09-17T04:41:54;10.30;;;3.10;;
29954;SDS011;16812;51.168;6.840;2022-09-17T04:44:21;10.27;;;2.97;;
29954;SDS011;16812;51.168;6.840;2022-09-17T04:46:48;13.33;;;2.90;;
29954;SDS011;16812;51.168;6.840;2022-09-17T04:49:15;12.53;;;2.80;;
29954;SDS011;16812;51.168;6.840;2022-09-17T04:51:44;9.53;;;2.10;;
29954;SDS011;16812;51.168;6.840;2022-09-17T04:54:11;16.37;;;2.93;;
29954;SDS011;16812;51.168;6.840;2022-09-17T04:56:38;7.43;;;1.90;;
29954;SDS011;16812;51.168;6.840;2022-09-17T04:59:05;13.50;;;2.73;;
29954;SDS011;16812;51.168;6.840;2022-09-17T05:01:32;20.37;;;2.93;;
29954;SDS011;16812;51.168;6.840;2022-09-17T05:03:59;11.37;;;2.50;;
29954;SDS011;16812;51.168;6.840;2022-09-17T05:06:26;7.50;;;2.40;;
29954;SDS011;16812;51.168;6.840;2022-09-17T05:08:55;8.83;;;2.50;;
29954;SDS011;16812;51.168;6.840;2022-09-17T05:11:22;11.33;;;3.00;;
29954;SDS011;16812;51.168;6.840;2022-09-17T05:13:49;10.73;;;2.57;;
29954;SDS011;16812;51.168;6.840;2022-09-17T05:16:16;14.67;;;3.50;;
29954;SDS011;16812;51.168;6.840;2022-09-17T05:18:44;14.77;;;2.70;;
29954;SDS011;16812;51.168;6.840;2022-09-17T05:21:11;12.20;;;2.60;;
29954;SDS011;16812;51.168;6.840;2022-09-17T05:23:38;9.10;;;2.03;;
29954;SDS011;16812;51.168;6.840;2022-09-17T05:26:06;5.83;;;2.13;;
29954;SDS011;16812;51.168;6.840;2022-09-17T05:28:33;11.03;;;3.30;;
29954;SDS011;16812;51.168;6.840;2022-09-17T05:31:00;9.50;;;2.20;;
29954;SDS011;16812;51.168;6.840;2022-09-17T05:33:28;7.90;;;2.70;;
29954;SDS011;16812;51.168;6.840;2022-09-17T05:35:55;10.33;;;4.10;;
29954;SDS011;16812;51.168;6.840;2022-09-17T05:38:22;10.23;;;3.20;;
29954;SDS011;16812;51.168;6.840;2022-09-17T05:40:49;9.87;;;2.20;;
29954;SDS011;16812;51.168;6.840;2022-09-17T05:43:18;9.17;;;2.50;;
29954;SDS011;16812;51.168;6.840;2022-09-17T05:45:45;7.17;;;2.77;;
29954;SDS011;16812;51.168;6.840;2022-09-17T05:48:13;9.83;;;3.20;;
29954;SDS011;16812;51.168;6.840;2022-09-17T05:50:40;16.87;;;2.80;;
29954;SDS011;16812;51.168;6.840;2022-09-17T05:53:09;11.63;;;2.90;;
29954;SDS011;16812;51.168;6.840;2022-09-17T05:55:36;9.20;;;2.17;;
29954;SDS011;16812;51.168;6.840;2022-09-17T05:58:10;9.33;;;3.07;;
29954;SDS011;16812;51.168;6.840;2022-09-17T06:00:38;14.67;;;3.13;;
29954;SDS011;16812;51.168;6.840;2022-09-17T06:03:05;14.67;;;2.80;;
29954;SDS011;16812;51.168;6.840;2022-09-17T06:05:33;5.20;;;2.30;;
29954;SDS011;16812;51.168;6.840;2022-09-17T06:08:00;6.70;;;2.20;;
29954;SDS011;16812;51.168;6.840;2022-09-17T06:10:27;14.73;;;3.77;;
29954;SDS011;16812;51.168;6.840;2022-09-17T06:12:55;12.63;;;2.53;;
29954;SDS011;16812;51.168;6.840;2022-09-17T06:15:22;13.47;;;2.27;;
29954;SDS011;16812;51.168;6.840;2022-09-17T06:17:50;11.03;;;2.10;;
29954;SDS011;16812;51.168;6.840;2022-09-17T06:20:17;10.80;;;2.60;;
29954;SDS011;16812;51.168;6.840;2022-09-17T06:22:45;10.40;;;2.40;;
29954;SDS011;16812;51.168;6.840;2022-09-17T06:25:12;8.67;;;2.30;;
29954;SDS011;16812;51.168;6.840;2022-09-17T06:27:39;11.50;;;2.70;;
29954;SDS011;16812;51.168;6.840;2022-09-17T06:30:07;9.77;;;2.27;;
29954;SDS011;16812;51.168;6.840;2022-09-17T06:32:34;8.53;;;2.20;;
29954;SDS011;16812;51.168;6.840;2022-09-17T06:35:02;8.17;;;2.40;;
29954;SDS011;16812;51.168;6.840;2022-09-17T06:37:30;7.83;;;2.30;;
29954;SDS011;16812;51.168;6.840;2022-09-17T06:39:57;6.57;;;2.60;;
29954;SDS011;16812;51.168;6.840;2022-09-17T06:42:25;10.10;;;2.23;;
29954;SDS011;16812;51.168;6.840;2022-09-17T06:44:52;4.83;;;2.13;;
29954;SDS011;16812;51.168;6.840;2022-09-17T06:47:19;9.37;;;2.30;;
29954;SDS011;16812;51.168;6.840;2022-09-17T06:49:49;6.93;;;2.27;;
29954;SDS011;16812;51.168;6.840;2022-09-17T06:52:18;9.03;;;2.40;;
29954;SDS011;16812;51.168;6.840;2022-09-17T06:54:45;12.80;;;2.70;;
29954;SDS011;16812;51.168;6.840;2022-09-17T06:57:12;12.20;;;3.30;;
29954;SDS011;16812;51.168;6.840;2022-09-17T06:59:39;5.50;;;2.70;;
29954;SDS011;16812;51.168;6.840;2022-09-17T07:02:07;10.73;;;2.00;;
29954;SDS011;16812;51.168;6.840;2022-09-17T07:04:34;6.03;;;2.10;;
29954;SDS011;16812;51.168;6.840;2022-09-17T07:07:01;9.50;;;2.53;;
29954;SDS011;16812;51.168;6.840;2022-09-17T07:09:30;10.80;;;2.70;;
29954;SDS011;16812;51.168;6.840;2022-09-17T07:11:57;6.83;;;2.10;;
29954;SDS011;16812;51.168;6.840;2022-09-17T07:14:24;3.07;;;1.80;;
29954;SDS011;16812;51.168;6.840;2022-09-17T07:16:52;10.93;;;2.50;;
29954;SDS011;16812;51.168;6.840;2022-09-17T07:19:19;3.67;;;1.93;;
29954;SDS011;16812;51.168;6.840;2022-09-17T07:21:46;7.40;;;1.70;;
29954;SDS011;16812;51.168;6.840;2022-09-17T07:24:14;12.33;;;2.60;;
29954;SDS011;16812;51.168;6.840;2022-09-17T07:26:42;5.67;;;1.90;;
29954;SDS011;16812;51.168;6.840;2022-09-17T07:29:09;7.67;;;2.27;;
29954;SDS011;16812;51.168;6.840;2022-09-17T07:31:36;6.63;;;1.90;;
29954;SDS011;16812;51.168;6.840;2022-09-17T07:34:03;4.00;;;2.10;;
29954;SDS011;16812;51.168;6.840;2022-09-17T07:36:31;6.90;;;2.03;;
29954;SDS011;16812;51.168;6.840;2022-09-17T07:38:58;7.97;;;2.20;;
29954;SDS011;16812;51.168;6.840;2022-09-17T07:41:25;7.70;;;2.87;;
29954;SDS011;16812;51.168;6.840;2022-09-17T07:43:53;5.90;;;2.17;;
29954;SDS011;16812;51.168;6.840;2022-09-17T07:46:20;9.37;;;2.03;;
29954;SDS011;16812;51.168;6.840;2022-09-17T07:48:48;11.37;;;2.23;;
29954;SDS011;16812;51.168;6.840;2022-09-17T07:51:15;6.73;;;2.13;;
29954;SDS011;16812;51.168;6.840;2022-09-17T07:53:42;7.97;;;2.50;;
29954;SDS011;16812;51.168;6.840;2022-09-17T07:56:10;9.63;;;2.27;;
29954;SDS011;16812;51.168;6.840;2022-09-17T07:58:37;5.37;;;2.10;;
29954;SDS011;16812;51.168;6.840;2022-09-17T08:01:06;9.43;;;2.70;;
29954;SDS011;16812;51.168;6.840;2022-09-17T08:03:33;8.50;;;2.43;;
29954;SDS011;16812;51.168;6.840;2022-09-17T08:06:01;11.63;;;2.30;;
29954;SDS011;16812;51.168;6.840;2022-09-17T08:08:29;6.57;;;2.40;;
29954;SDS011;16812;51.168;6.840;2022-09-17T08:10:58;12.23;;;2.70;;
29954;SDS011;16812;51.168;6.840;2022-09-17T08:13:25;7.27;;;2.10;;
29954;SDS011;16812;51.168;6.840;2022-09-17T08:15:52;7.57;;;2.53;;
29954;SDS011;16812;51.168;6.840;2022-09-17T08:18:24;7.73;;;2.47;;
29954;SDS011;16812;51.168;6.840;2022-09-17T08:20:54;5.67;;;2.10;;
29954;SDS011;16812;51.168;6.840;2022-09-17T08:23:22;9.03;;;2.33;;
29954;SDS011;16812;51.168;6.840;2022-09-17T08:25:51;4.63;;;1.67;;
29954;SDS011;16812;51.168;6.840;2022-09-17T08:28:18;8.37;;;2.10;;
29954;SDS011;16812;51.168;6.840;2022-09-17T08:30:45;9.10;;;2.47;;
29954;SDS011;16812;51.168;6.840;2022-09-17T08:33:12;4.77;;;2.40;;
29954;SDS011;16812;51.168;6.840;2022-09-17T08:35:41;9.47;;;2.50;;
29954;SDS011;16812;51.168;6.840;2022-09-17T08:38:08;9.20;;;2.00;;
29954;SDS011;16812;51.168;6.840;2022-09-17T08:40:35;11.50;;;2.70;;
29954;SDS011;16812;51.168;6.840;2022-09-17T08:43:07;5.40;;;1.80;;
29954;SDS011;16812;51.168;6.840;2022-09-17T08:45:37;5.93;;;2.20;;
29954;SDS011;16812;51.168;6.840;2022-09-17T08:48:04;6.87;;;1.97;;
29954;SDS011;16812;51.168;6.840;2022-09-17T08:50:31;7.67;;;2.07;;
29954;SDS011;16812;51.168;6.840;2022-09-17T08:55:53;5.73;;;2.03;;
29954;SDS011;16812;51.168;6.840;2022-09-17T08:58:34;9.90;;;2.03;;
29954;SDS011;16812;51.168;6.840;2022-09-17T09:01:06;6.50;;;2.10;;
29954;SDS011;16812;51.168;6.840;2022-09-17T09:03:38;9.97;;;2.20;;
29954;SDS011;16812;51.168;6.840;2022-09-17T09:06:07;7.60;;;2.60;;
29954;SDS011;16812;51.168;6.840;2022-09-17T09:08:36;4.37;;;1.90;;
29954;SDS011;16812;51.168;6.840;2022-09-17T09:11:10;5.07;;;1.73;;
29954;SDS011;16812;51.168;6.840;2022-09-17T09:13:39;7.63;;;2.23;;
29954;SDS011;16812;51.168;6.840;2022-09-17T09:16:10;4.53;;;1.90;;
29954;SDS011;16812;51.168;6.840;2022-09-17T09:18:37;4.00;;;1.73;;
29954;SDS011;16812;51.168;6.840;2022-09-17T09:21:09;5.83;;;1.77;;
29954;SDS011;16812;51.168;6.840;2022-09-17T09:23:42;4.63;;;1.63;;
29954;SDS011;16812;51.168;6.840;2022-09-17T09:26:15;6.00;;;2.20;;
29954;SDS011;16812;51.168;6.840;2022-09-17T09:28:48;12.13;;;1.90;;
29954;SDS011;16812;51.168;6.840;2022-09-17T09:31:20;5.40;;;2.23;;
29954;SDS011;16812;51.168;6.840;2022-09-17T09:33:51;4.23;;;1.97;;
29954;SDS011;16812;51.168;6.840;2022-09-17T09:36:18;7.43;;;2.03;;
29954;SDS011;16812;51.168;6.840;2022-09-17T09:38:45;9.20;;;2.67;;
29954;SDS011;16812;51.168;6.840;2022-09-17T09:41:16;6.20;;;1.70;;
29954;SDS011;16812;51.168;6.840;2022-09-17T09:43:46;4.23;;;1.67;;
29954;SDS011;16812;51.168;6.840;2022-09-17T09:46:39;2.60;;;1.27;;
29954;SDS011;16812;51.168;6.840;2022-09-17T09:49:15;7.13;;;1.83;;
29954;SDS011;16812;51.168;6.840;2022-09-17T09:51:46;7.10;;;2.50;;
29954;SDS011;16812;51.168;6.840;2022-09-17T09:54:18;5.40;;;1.90;;
29954;SDS011;16812;51.168;6.840;2022-09-17T09:56:52;3.77;;;1.77;;
29954;SDS011;16812;51.168;6.840;2022-09-17T09:59:20;7.67;;;1.90;;
29954;SDS011;16812;51.168;6.840;2022-09-17T10:01:48;4.07;;;1.30;;
29954;SDS011;16812;51.168;6.840;2022-09-17T10:04:16;5.07;;;1.83;;
29954;SDS011;16812;51.168;6.840;2022-09-17T10:06:44;5.07;;;1.80;;
29954;SDS011;16812;51.168;6.840;2022-09-17T10:09:12;9.20;;;1.63;;
29954;SDS011;16812;51.168;6.840;2022-09-17T10:11:39;6.67;;;1.60;;
29954;SDS011;16812;51.168;6.840;2022-09-17T10:14:18;2.83;;;1.50;;
29954;SDS011;16812;51.168;6.840;2022-09-17T10:16:47;4.67;;;1.67;;
29954;SDS011;16812;51.168;6.840;2022-09-17T10:19:17;8.70;;;2.57;;
29954;SDS011;16812;51.168;6.840;2022-09-17T10:21:45;5.30;;;1.50;;
29954;SDS011;16812;51.168;6.840;2022-09-17T10:24:15;4.40;;;1.50;;
29954;SDS011;16812;51.168;6.840;2022-09-17T10:26:47;3.43;;;1.40;;
29954;SDS011;16812;51.168;6.840;2022-09-17T10:29:17;6.30;;;1.93;;
29954;SDS011;16812;51.168;6.840;2022-09-17T10:31:45;5.07;;;1.77;;
29954;SDS011;16812;51.168;6.840;2022-09-17T10:34:17;7.03;;;1.70;;
29954;SDS011;16812;51.168;6.840;2022-09-17T10:36:45;4.03;;;1.77;;
29954;SDS011;16812;51.168;6.840;2022-09-17T10:39:26;3.30;;;1.40;;
29954;SDS011;16812;51.168;6.840;2022-09-17T10:41:55;5.27;;;2.00;;
29954;SDS011;16812;51.168;6.840;2022-09-17T10:44:24;4.87;;;1.60;;
29954;SDS011;16812;51.168;6.840;2022-09-17T10:46:52;3.53;;;1.40;;
29954;SDS011;16812;51.168;6.840;2022-09-17T10:49:21;3.47;;;1.50;;
29954;SDS011;16812;51.168;6.840;2022-09-17T10:52:02;3.77;;;1.17;;
29954;SDS011;16812;51.168;6.840;2022-09-17T10:57:16;5.90;;;1.70;;
29954;SDS011;16812;51.168;6.840;2022-09-17T10:59:55;5.63;;;1.53;;
29954;SDS011;16812;51.168;6.840;2022-09-17T11:05:19;7.53;;;1.70;;
29954;SDS011;16812;51.168;6.840;2022-09-17T11:07:51;9.50;;;2.13;;
29954;SDS011;16812;51.168;6.840;2022-09-17T11:10:22;3.93;;;1.43;;
29954;SDS011;16812;51.168;6.840;2022-09-17T11:12:56;2.87;;;1.50;;
29954;SDS011;16812;51.168;6.840;2022-09-17T11:15:30;2.00;;;1.20;;
29954;SDS011;16812;51.168;6.840;2022-09-17T11:20:50;4.03;;;1.27;;
29954;SDS011;16812;51.168;6.840;2022-09-17T11:23:25;8.60;;;1.70;;
29954;SDS011;16812;51.168;6.840;2022-09-17T11:25:53;2.93;;;1.10;;
29954;SDS011;16812;51.168;6.840;2022-09-17T11:28:31;4.80;;;1.40;;
29954;SDS011;16812;51.168;6.840;2022-09-17T11:31:05;6.03;;;1.30;;
29954;SDS011;16812;51.168;6.840;2022-09-17T11:33:43;5.30;;;1.73;;
29954;SDS011;16812;51.168;6.840;2022-09-17T11:36:14;4.50;;;1.63;;
29954;SDS011;16812;51.168;6.840;2022-09-17T11:38:44;4.53;;;1.10;;
29954;SDS011;16812;51.168;6.840;2022-09-17T11:41:15;2.90;;;0.90;;
29954;SDS011;16812;51.168;6.840;2022-09-17T11:43:43;5.70;;;1.20;;
29954;SDS011;16812;51.168;6.840;2022-09-17T11:46:15;2.20;;;0.90;;
29954;SDS011;16812;51.168;6.840;2022-09-17T11:48:45;1.50;;;0.80;;
29954;SDS011;16812;51.168;6.840;2022-09-17T11:51:17;2.90;;;0.80;;
29954;SDS011;16812;51.168;6.840;2022-09-17T11:53:46;1.37;;;0.90;;
29954;SDS011;16812;51.168;6.840;2022-09-17T11:56:19;3.30;;;1.07;;
29954;SDS011;16812;51.168;6.840;2022-09-17T11:58:48;6.20;;;0.90;;
29954;SDS011;16812;51.168;6.840;2022-09-17T12:01:20;3.93;;;1.13;;
29954;SDS011;16812;51.168;6.840;2022-09-17T12:03:52;2.33;;;1.20;;
29954;SDS011;16812;51.168;6.840;2022-09-17T12:06:22;2.20;;;1.00;;
29954;SDS011;16812;51.168;6.840;2022-09-17T12:08:52;3.33;;;1.00;;
29954;SDS011;16812;51.168;6.840;2022-09-17T12:11:21;2.97;;;1.20;;
29954;SDS011;16812;51.168;6.840;2022-09-17T12:13:50;2.63;;;1.30;;
29954;SDS011;16812;51.168;6.840;2022-09-17T12:16:20;1.80;;;0.97;;
29954;SDS011;16812;51.168;6.840;2022-09-17T12:18:52;3.87;;;1.40;;
29954;SDS011;16812;51.168;6.840;2022-09-17T12:21:24;4.43;;;1.53;;
29954;SDS011;16812;51.168;6.840;2022-09-17T12:23:53;2.70;;;1.10;;
29954;SDS011;16812;51.168;6.840;2022-09-17T12:26:24;6.33;;;1.77;;
29954;SDS011;16812;51.168;6.840;2022-09-17T12:28:55;1.73;;;1.00;;
29954;SDS011;16812;51.168;6.840;2022-09-17T12:31:29;4.10;;;1.27;;
29954;SDS011;16812;51.168;6.840;2022-09-17T12:33:57;4.17;;;1.43;;
29954;SDS011;16812;51.168;6.840;2022-09-17T12:36:30;11.20;;;2.07;;
29954;SDS011;16812;51.168;6.840;2022-09-17T12:39:07;8.07;;;1.40;;
29954;SDS011;16812;51.168;6.840;2022-09-17T12:41:38;2.93;;;1.60;;
29954;SDS011;16812;51.168;6.840;2022-09-17T12:44:20;4.40;;;1.50;;
29954;SDS011;16812;51.168;6.840;2022-09-17T12:46:56;3.57;;;1.20;;
29954;SDS011;16812;51.168;6.840;2022-09-17T12:49:33;1.77;;;0.93;;
29954;SDS011;16812;51.168;6.840;2022-09-17T12:52:03;1.33;;;1.03;;
29954;SDS011;16812;51.168;6.840;2022-09-17T12:54:37;3.60;;;0.90;;
29954;SDS011;16812;51.168;6.840;2022-09-17T12:57:14;2.03;;;0.80;;
29954;SDS011;16812;51.168;6.840;2022-09-17T12:59:47;1.87;;;0.80;;
29954;SDS011;16812;51.168;6.840;2022-09-17T13:02:18;1.40;;;0.83;;
29954;SDS011;16812;51.168;6.840;2022-09-17T13:08:02;3.00;;;0.90;;
29954;SDS011;16812;51.168;6.840;2022-09-17T13:10:37;1.60;;;1.00;;
29954;SDS011;16812;51.168;6.840;2022-09-17T13:13:09;1.53;;;0.93;;
29954;SDS011;16812;51.168;6.840;2022-09-17T13:15:42;1.73;;;1.03;;
29954;SDS011;16812;51.168;6.840;2022-09-17T13:18:14;1.30;;;1.03;;
29954;SDS011;16812;51.168;6.840;2022-09-17T13:20:59;1.10;;;0.90;;
29954;SDS011;16812;51.168;6.840;2022-09-17T13:23:29;10.03;;;1.53;;
29954;SDS011;16812;51.168;6.840;2022-09-17T13:25:58;3.33;;;1.00;;
29954;SDS011;16812;51.168;6.840;2022-09-17T13:28:34;5.10;;;1.40;;
29954;SDS011;16812;51.168;6.840;2022-09-17T13:31:02;0.90;;;0.80;;
29954;SDS011;16812;51.168;6.840;2022-09-17T13:36:38;2.80;;;1.20;;
29954;SDS011;16812;51.168;6.840;2022-09-17T13:39:07;2.13;;;1.20;;
29954;SDS011;16812;51.168;6.840;2022-09-17T13:41:35;3.07;;;1.53;;
29954;SDS011;16812;51.168;6.840;2022-09-17T13:44:03;3.70;;;1.30;;
29954;SDS011;16812;51.168;6.840;2022-09-17T13:46:30;4.30;;;1.47;;
29954;SDS011;16812;51.168;6.840;2022-09-17T13:48:58;3.23;;;1.37;;
29954;SDS011;16812;51.168;6.840;2022-09-17T13:51:46;3.37;;;1.23;;
29954;SDS011;16812;51.168;6.840;2022-09-17T13:54:15;2.27;;;1.10;;
29954;SDS011;16812;51.168;6.840;2022-09-17T13:56:44;3.53;;;1.27;;
29954;SDS011;16812;51.168;6.840;2022-09-17T13:59:12;3.17;;;1.10;;
29954;SDS011;16812;51.168;6.840;2022-09-17T14:04:31;2.90;;;0.93;;
29954;SDS011;16812;51.168;6.840;2022-09-17T14:06:59;2.13;;;1.13;;
29954;SDS011;16812;51.168;6.840;2022-09-17T14:09:33;4.37;;;1.40;;
29954;SDS011;16812;51.168;6.840;2022-09-17T14:14:47;5.90;;;1.60;;
29954;SDS011;16812;51.168;6.840;2022-09-17T14:20:02;5.63;;;1.47;;
29954;SDS011;16812;51.168;6.840;2022-09-17T14:22:31;4.50;;;1.40;;
29954;SDS011;16812;51.168;6.840;2022-09-17T14:24:58;4.20;;;1.33;;
29954;SDS011;16812;51.168;6.840;2022-09-17T14:27:32;4.40;;;1.60;;
29954;SDS011;16812;51.168;6.840;2022-09-17T14:30:11;4.60;;;1.47;;
29954;SDS011;16812;51.168;6.840;2022-09-17T14:32:40;5.57;;;1.57;;
29954;SDS011;16812;51.168;6.840;2022-09-17T14:35:12;5.83;;;1.60;;
29954;SDS011;16812;51.168;6.840;2022-09-17T14:37:47;5.53;;;1.77;;
29954;SDS011;16812;51.168;6.840;2022-09-17T14:40:16;7.00;;;1.57;;
29954;SDS011;16812;51.168;6.840;2022-09-17T14:42:44;4.77;;;1.57;;
29954;SDS011;16812;51.168;6.840;2022-09-17T14:45:13;4.83;;;1.60;;
29954;SDS011;16812;51.168;6.840;2022-09-17T14:47:41;5.43;;;2.43;;
29954;SDS011;16812;51.168;6.840;2022-09-17T14:50:17;5.60;;;1.97;;
29954;SDS011;16812;51.168;6.840;2022-09-17T14:52:47;5.10;;;1.60;;
29954;SDS011;16812;51.168;6.840;2022-09-17T14:55:16;11.30;;;2.50;;
29954;SDS011;16812;51.168;6.840;2022-09-17T14:57:44;3.60;;;1.70;;
29954;SDS011;16812;51.168;6.840;2022-09-17T15:00:15;4.80;;;1.50;;
29954;SDS011;16812;51.168;6.840;2022-09-17T15:02:43;13.57;;;1.87;;
29954;SDS011;16812;51.168;6.840;2022-09-17T15:05:21;6.03;;;1.43;;
29954;SDS011;16812;51.168;6.840;2022-09-17T15:07:49;4.83;;;1.40;;
29954;SDS011;16812;51.168;6.840;2022-09-17T15:10:18;4.43;;;1.67;;
29954;SDS011;16812;51.168;6.840;2022-09-17T15:12:46;5.23;;;1.73;;
29954;SDS011;16812;51.168;6.840;2022-09-17T15:15:20;2.80;;;1.53;;
29954;SDS011;16812;51.168;6.840;2022-09-17T15:17:47;3.70;;;1.43;;
29954;SDS011;16812;51.168;6.840;2022-09-17T15:20:16;2.80;;;1.40;;
29954;SDS011;16812;51.168;6.840;2022-09-17T15:22:44;3.50;;;1.80;;
29954;SDS011;16812;51.168;6.840;2022-09-17T15:25:17;8.33;;;1.73;;